Avondale, Texas
Current Conditions -  °F | °C
As of 9:52 PM on Tuesday 25 Nov 2014 (Local Time) from KHRL Reporting Station
Clear Clear  
Wind Chill: 49°   Ceiling: Unl
Heat Index: 49°   Visibility: 10mi
Dew Point: 44°   Wind: 3mph
Humidity: 83%   Direction: 160°SSE
Pressure: 30.29"   Gusts: NA
Location:  26.2089°N, 97.6849°W
Report Text: KHRL 260352Z 16003KT 10SM CLR 09/07 A3029 RMK AO2 SLP258 T00940067
Loading
Personal Weather Stations






























Interactive Weather Map New forecast layout! Learn more

10-Day Weather Forecast

Advertisements
Track Severe Weather on mobile